Fukuei Maru — JD3285 — position and weather

sailwx.info

Track history (hours):
 
Tides and Currents Weather Stations Pressure Air Temp Water Temp Dewpoint Dewpoint Depression Visibility Wind Speed Wind Dir Waves Ship Positions

Fukuei Maru

Last reported at 2018-Jul-17 14:17 UTC. Time now 2018-Jul-18 04:59 UTC.
Position N 34°25' E 134°22'.

Length 58 m; draft 4 m.

Type: Cargo ship. MMSI: 431003166.

Date/timePositionNaut miles runAvg speedWind from/ knotsBaromVisibWave heightAir tempDewpointWater temp
2018-Jul-17 14:17N 34°25' E 134°22'311.7
2018-Jul-17 14:00N 34°27' E 134°26'511.2
2018-Jul-17 13:30N 34°29' E 134°32'611.4
2018-Jul-17 13:00N 34°31' E 134°38'611.8
2018-Jul-17 12:30N 34°33' E 134°45'612.4
2018-Jul-17 12:00N 34°35' E 134°52'612.7
2018-Jul-17 11:30N 34°38' E 134°59'510.4
2018-Jul-17 11:00N 34°36' E 135°05'4 9.0
2018-Jul-17 10:30N 34°35' E 135°10'510.8
2018-Jul-17 10:00N 34°34' E 135°17'510.1
2018-Jul-17 09:30N 34°34' E 135°23'2 0.3
2018-Jul-17 02:12N 34°33' E 135°25'0 0.0
2018-Jul-17 02:00N 34°33' E 135°25'0 0.0
2018-Jul-17 01:27N 34°33' E 135°25'0 0.0
2018-Jul-17 01:00N 34°33' E 135°25'0 0.0
2018-Jul-17 00:27N 34°33' E 135°25'0 0.0
2018-Jul-16 13:15N 34°33' E 135°25'0 0.0
2018-Jul-16 13:00N 34°33' E 135°25'0 0.0
2018-Jul-16 12:30N 34°33' E 135°25'0 0.0
2018-Jul-16 12:00N 34°33' E 135°25'0 0.0
2018-Jul-16 11:27N 34°33' E 135°25'0 0.0
2018-Jul-16 11:00N 34°33' E 135°25'0 0.0
2018-Jul-16 10:30N 34°33' E 135°25'0 0.0
2018-Jul-16 10:00N 34°33' E 135°25'0 0.0
2018-Jul-16 09:30N 34°33' E 135°25'0 0.0
2018-Jul-16 02:54N 34°33' E 135°25'0 0.0
2018-Jul-16 02:30N 34°33' E 135°25'0 0.0
2018-Jul-16 01:54N 34°33' E 135°25'1 2.1
2018-Jul-16 01:31N 34°33' E 135°24'510.5
2018-Jul-16 01:00N 34°34' E 135°18'510.5
2018-Jul-16 00:31N 34°34' E 135°12'611.4
2018-Jul-15 23:59N 34°35' E 135°04'10 8.7
2018-Jul-15 22:48N 34°34' E 134°52'910.2
2018-Jul-15 21:56N 34°30' E 134°42'510.9
2018-Jul-15 21:30N 34°29' E 134°37'811.0
2018-Jul-15 20:45N 34°26' E 134°27'11 0.3
2018-Jul-14 10:19N 34°24' E 134°14'512.9
2018-Jul-14 09:58N 34°25' E 134°20'511.7
2018-Jul-14 09:30N 34°27' E 134°26'611.4
2018-Jul-14 09:00N 34°29' E 134°32'610.9
2018-Jul-14 08:30N 34°31' E 134°39'511.1
2018-Jul-14 08:00N 34°33' E 134°45'510.4
2018-Jul-14 07:30N 34°35' E 134°51'5 9.5
2018-Jul-14 07:00N 34°37' E 134°56'4 8.0
2018-Jul-14 06:28N 34°37' E 135°01'2 5.4
2018-Jul-14 06:00N 34°36' E 135°04'5 9.2
2018-Jul-14 05:30N 34°36' E 135°09'510.9
2018-Jul-14 05:00N 34°36' E 135°16'610.6
2018-Jul-14 04:28N 34°36' E 135°23'4 1.8
2018-Jul-14 02:16N 34°35' E 135°27'0 0.0
2018-Jul-14 00:58N 34°35' E 135°27'0 0.0
2018-Jul-13 22:40N 34°35' E 135°27'0 0.0
2018-Jul-13 21:34N 34°35' E 135°27'0 0.0
2018-Jul-13 21:04N 34°35' E 135°27'0 0.0
2018-Jul-13 20:52N 34°35' E 135°27'0 0.0
2018-Jul-13 20:28N 34°35' E 135°27'0 0.0
2018-Jul-13 19:58N 34°35' E 135°27'0 0.0
2018-Jul-13 19:22N 34°35' E 135°27'0 0.0
2018-Jul-13 18:52N 34°35' E 135°27'0 0.0
2018-Jul-13 18:22N 34°35' E 135°27'0 0.0
2018-Jul-13 17:52N 34°35' E 135°27'0 0.0
2018-Jul-13 17:28N 34°35' E 135°27'0 0.0
2018-Jul-13 16:58N 34°35' E 135°27'0 0.0
2018-Jul-13 15:46N 34°35' E 135°27'0 0.0
2018-Jul-13 15:28N 34°35' E 135°27'0 0.0
2018-Jul-13 14:46N 34°35' E 135°27'0 0.0
2018-Jul-13 10:22N 34°35' E 135°27'0 0.0
2018-Jul-13 06:28N 34°35' E 135°27'0 0.0
2018-Jul-13 04:40N 34°35' E 135°27'0 0.0
2018-Jul-12 23:10N 34°35' E 135°27'0 0.0
2018-Jul-12 22:52N 34°35' E 135°27'0 0.0
2018-Jul-12 22:22N 34°35' E 135°27'0 0.0
2018-Jul-12 20:01N 34°35' E 135°27'0 0.5
2018-Jul-12 20:00N 34°35' E 135°27'3 5.4
2018-Jul-12 19:30N 34°36' E 135°24'5 9.8
2018-Jul-12 19:00N 34°36' E 135°18'510.7
2018-Jul-12 18:30N 34°35' E 135°12'611.6
2018-Jul-12 18:00N 34°35' E 135°05'1111.8
2018-Jul-12 17:05N 34°34' E 134°52'112.2
2018-Jul-12 16:58N 34°34' E 134°50'511.5
2018-Jul-12 16:30N 34°31' E 134°45'510.8
2018-Jul-12 16:00N 34°29' E 134°38'611.3
2018-Jul-12 15:31N 34°27' E 134°32'610.6
2018-Jul-12 14:58N 34°25' E 134°26'2 0.0
2018-Jul-10 13:54N 34°26' E 134°24'510.9
2018-Jul-10 13:27N 34°28' E 134°29'511.0
2018-Jul-10 13:00N 34°30' E 134°35'510.7
2018-Jul-10 12:30N 34°32' E 134°41'712.1
2018-Jul-10 11:55N 34°34' E 134°49'612.9
2018-Jul-10 11:29N 34°36' E 134°55'611.7
2018-Jul-10 11:00N 34°37' E 135°02'510.6
2018-Jul-10 10:30N 34°36' E 135°08'610.7
2018-Jul-10 09:59N 34°37' E 135°15'5 9.4
2018-Jul-10 09:30N 34°41' E 135°18'2 4.1
2018-Jul-10 09:00N 34°42' E 135°16'0 0.0
2018-Jul-10 08:29N 34°42' E 135°16'0 0.0
2018-Jul-10 07:47N 34°42' E 135°16'0 0.0
2018-Jul-10 07:29N 34°42' E 135°16'0 0.0
2018-Jul-10 06:59N 34°42' E 135°16'0 0.0
2018-Jul-10 06:29N 34°42' E 135°16'0 0.0
2018-Jul-10 05:59N 34°42' E 135°16'0 0.0
2018-Jul-10 05:29N 34°42' E 135°16'0 0.0
2018-Jul-10 04:47N 34°42' E 135°16'0 0.0
2018-Jul-10 04:29N 34°42' E 135°16'0 0.0
2018-Jul-10 03:59N 34°42' E 135°16'0 0.0
2018-Jul-10 03:29N 34°42' E 135°16'0 0.0
2018-Jul-10 02:59N 34°42' E 135°16'0 0.0
2018-Jul-10 02:17N 34°42' E 135°16'0 0.0
2018-Jul-10 01:59N 34°42' E 135°16'0 0.0
2018-Jul-10 01:29N 34°42' E 135°16'0 0.0
2018-Jul-10 00:59N 34°42' E 135°16'0 0.0
2018-Jul-10 00:17N 34°42' E 135°16'0 0.0
2018-Jul-09 23:53N 34°42' E 135°16'0 0.0
2018-Jul-09 23:29N 34°42' E 135°16'0 0.0
2018-Jul-09 23:00N 34°42' E 135°16'2 4.6
2018-Jul-09 22:30N 34°42' E 135°19'0 0.1
2018-Jul-09 21:58N 34°42' E 135°19'0 0.0
2018-Jul-09 21:28N 34°42' E 135°19'0 0.0
2018-Jul-09 20:58N 34°42' E 135°19'0 0.0
2018-Jul-09 20:28N 34°42' E 135°19'0 0.0
2018-Jul-09 19:58N 34°42' E 135°19'0 0.0
2018-Jul-09 19:28N 34°42' E 135°19'0 0.0
2018-Jul-09 18:58N 34°42' E 135°19'0 0.0
2018-Jul-09 18:28N 34°42' E 135°19'0 0.1
2018-Jul-09 17:46N 34°42' E 135°19'0 0.0
2018-Jul-09 17:16N 34°42' E 135°19'0 0.0
2018-Jul-09 16:58N 34°42' E 135°19'0 0.0
2018-Jul-09 16:28N 34°42' E 135°19'0 0.1
2018-Jul-09 15:58N 34°42' E 135°19'0 0.1
2018-Jul-09 15:28N 34°42' E 135°19'0 0.1
2018-Jul-09 14:58N 34°42' E 135°19'0 1.0
2018-Jul-09 14:30N 34°41' E 135°19'510.7
2018-Jul-09 14:00N 34°36' E 135°16'611.2
2018-Jul-09 13:30N 34°35' E 135°09'611.7
2018-Jul-09 13:00N 34°36' E 135°02'2210.7
2018-Jul-09 10:55N 34°29' E 134°37'11 0.6
2018-Jul-08 17:25N 34°21' E 134°27'2210.7
2018-Jul-08 15:20N 34°06' E 134°47'1010.8
2018-Jul-08 14:23N 33°58' E 134°55'  
Track history (hours):
 
Tides and Currents Weather Stations Pressure Air Temp Water Temp Dewpoint Dewpoint Depression Visibility Wind Speed Wind Dir Waves Ship Positions

Fukuei Maru

Last reported at 2018-Jul-17 14:17 UTC. Time now 2018-Jul-18 04:59 UTC.
Position N 34°25' E 134°22'.

Length 58 m; draft 4 m.

Type: Cargo ship. MMSI: 431003166.

Date/timePositionNaut miles runAvg speedWind from/ knotsBaromVisibWave heightAir tempDewpointWater temp
2018-Jul-17 14:17N 34°25' E 134°22'311.7
2018-Jul-17 14:00N 34°27' E 134°26'511.2
2018-Jul-17 13:30N 34°29' E 134°32'611.4
2018-Jul-17 13:00N 34°31' E 134°38'611.8
2018-Jul-17 12:30N 34°33' E 134°45'612.4
2018-Jul-17 12:00N 34°35' E 134°52'612.7
2018-Jul-17 11:30N 34°38' E 134°59'510.4
2018-Jul-17 11:00N 34°36' E 135°05'4 9.0
2018-Jul-17 10:30N 34°35' E 135°10'510.8
2018-Jul-17 10:00N 34°34' E 135°17'510.1
2018-Jul-17 09:30N 34°34' E 135°23'2 0.3
2018-Jul-17 02:12N 34°33' E 135°25'0 0.0
2018-Jul-17 02:00N 34°33' E 135°25'0 0.0
2018-Jul-17 01:27N 34°33' E 135°25'0 0.0
2018-Jul-17 01:00N 34°33' E 135°25'0 0.0
2018-Jul-17 00:27N 34°33' E 135°25'0 0.0
2018-Jul-16 13:15N 34°33' E 135°25'0 0.0
2018-Jul-16 13:00N 34°33' E 135°25'0 0.0
2018-Jul-16 12:30N 34°33' E 135°25'0 0.0
2018-Jul-16 12:00N 34°33' E 135°25'0 0.0
2018-Jul-16 11:27N 34°33' E 135°25'0 0.0
2018-Jul-16 11:00N 34°33' E 135°25'0 0.0
2018-Jul-16 10:30N 34°33' E 135°25'0 0.0
2018-Jul-16 10:00N 34°33' E 135°25'0 0.0
2018-Jul-16 09:30N 34°33' E 135°25'0 0.0
2018-Jul-16 02:54N 34°33' E 135°25'0 0.0
2018-Jul-16 02:30N 34°33' E 135°25'0 0.0
2018-Jul-16 01:54N 34°33' E 135°25'1 2.1
2018-Jul-16 01:31N 34°33' E 135°24'510.5
2018-Jul-16 01:00N 34°34' E 135°18'510.5
2018-Jul-16 00:31N 34°34' E 135°12'611.4
2018-Jul-15 23:59N 34°35' E 135°04'10 8.7
2018-Jul-15 22:48N 34°34' E 134°52'910.2
2018-Jul-15 21:56N 34°30' E 134°42'510.9
2018-Jul-15 21:30N 34°29' E 134°37'811.0
2018-Jul-15 20:45N 34°26' E 134°27'11 0.3
2018-Jul-14 10:19N 34°24' E 134°14'512.9
2018-Jul-14 09:58N 34°25' E 134°20'511.7
2018-Jul-14 09:30N 34°27' E 134°26'611.4
2018-Jul-14 09:00N 34°29' E 134°32'610.9
2018-Jul-14 08:30N 34°31' E 134°39'511.1
2018-Jul-14 08:00N 34°33' E 134°45'510.4
2018-Jul-14 07:30N 34°35' E 134°51'5 9.5
2018-Jul-14 07:00N 34°37' E 134°56'4 8.0
2018-Jul-14 06:28N 34°37' E 135°01'2 5.4
2018-Jul-14 06:00N 34°36' E 135°04'5 9.2
2018-Jul-14 05:30N 34°36' E 135°09'510.9
2018-Jul-14 05:00N 34°36' E 135°16'610.6
2018-Jul-14 04:28N 34°36' E 135°23'4 1.8
2018-Jul-14 02:16N 34°35' E 135°27'0 0.0
2018-Jul-14 00:58N 34°35' E 135°27'0 0.0
2018-Jul-13 22:40N 34°35' E 135°27'0 0.0
2018-Jul-13 21:34N 34°35' E 135°27'0 0.0
2018-Jul-13 21:04N 34°35' E 135°27'0 0.0
2018-Jul-13 20:52N 34°35' E 135°27'0 0.0
2018-Jul-13 20:28N 34°35' E 135°27'0 0.0
2018-Jul-13 19:58N 34°35' E 135°27'0 0.0
2018-Jul-13 19:22N 34°35' E 135°27'0 0.0
2018-Jul-13 18:52N 34°35' E 135°27'0 0.0
2018-Jul-13 18:22N 34°35' E 135°27'0 0.0
2018-Jul-13 17:52N 34°35' E 135°27'0 0.0
2018-Jul-13 17:28N 34°35' E 135°27'0 0.0
2018-Jul-13 16:58N 34°35' E 135°27'0 0.0
2018-Jul-13 15:46N 34°35' E 135°27'0 0.0
2018-Jul-13 15:28N 34°35' E 135°27'0 0.0
2018-Jul-13 14:46N 34°35' E 135°27'0 0.0
2018-Jul-13 10:22N 34°35' E 135°27'0 0.0
2018-Jul-13 06:28N 34°35' E 135°27'0 0.0
2018-Jul-13 04:40N 34°35' E 135°27'0 0.0
2018-Jul-12 23:10N 34°35' E 135°27'0 0.0
2018-Jul-12 22:52N 34°35' E 135°27'0 0.0
2018-Jul-12 22:22N 34°35' E 135°27'0 0.0
2018-Jul-12 20:01N 34°35' E 135°27'0 0.5
2018-Jul-12 20:00N 34°35' E 135°27'3 5.4
2018-Jul-12 19:30N 34°36' E 135°24'5 9.8
2018-Jul-12 19:00N 34°36' E 135°18'510.7
2018-Jul-12 18:30N 34°35' E 135°12'611.6
2018-Jul-12 18:00N 34°35' E 135°05'1111.8
2018-Jul-12 17:05N 34°34' E 134°52'112.2
2018-Jul-12 16:58N 34°34' E 134°50'511.5
2018-Jul-12 16:30N 34°31' E 134°45'510.8
2018-Jul-12 16:00N 34°29' E 134°38'611.3
2018-Jul-12 15:31N 34°27' E 134°32'610.6
2018-Jul-12 14:58N 34°25' E 134°26'2 0.0
2018-Jul-10 13:54N 34°26' E 134°24'510.9
2018-Jul-10 13:27N 34°28' E 134°29'511.0
2018-Jul-10 13:00N 34°30' E 134°35'510.7
2018-Jul-10 12:30N 34°32' E 134°41'712.1
2018-Jul-10 11:55N 34°34' E 134°49'612.9
2018-Jul-10 11:29N 34°36' E 134°55'611.7
2018-Jul-10 11:00N 34°37' E 135°02'510.6
2018-Jul-10 10:30N 34°36' E 135°08'610.7
2018-Jul-10 09:59N 34°37' E 135°15'5 9.4
2018-Jul-10 09:30N 34°41' E 135°18'2 4.1
2018-Jul-10 09:00N 34°42' E 135°16'0 0.0
2018-Jul-10 08:29N 34°42' E 135°16'0 0.0
2018-Jul-10 07:47N 34°42' E 135°16'0 0.0
2018-Jul-10 07:29N 34°42' E 135°16'0 0.0
2018-Jul-10 06:59N 34°42' E 135°16'0 0.0
2018-Jul-10 06:29N 34°42' E 135°16'0 0.0
2018-Jul-10 05:59N 34°42' E 135°16'0 0.0
2018-Jul-10 05:29N 34°42' E 135°16'0 0.0
2018-Jul-10 04:47N 34°42' E 135°16'0 0.0
2018-Jul-10 04:29N 34°42' E 135°16'0 0.0
2018-Jul-10 03:59N 34°42' E 135°16'0 0.0
2018-Jul-10 03:29N 34°42' E 135°16'0 0.0
2018-Jul-10 02:59N 34°42' E 135°16'0 0.0
2018-Jul-10 02:17N 34°42' E 135°16'0 0.0
2018-Jul-10 01:59N 34°42' E 135°16'0 0.0
2018-Jul-10 01:29N 34°42' E 135°16'0 0.0
2018-Jul-10 00:59N 34°42' E 135°16'0 0.0
2018-Jul-10 00:17N 34°42' E 135°16'0 0.0
2018-Jul-09 23:53N 34°42' E 135°16'0 0.0
2018-Jul-09 23:29N 34°42' E 135°16'0 0.0
2018-Jul-09 23:00N 34°42' E 135°16'2 4.6
2018-Jul-09 22:30N 34°42' E 135°19'0 0.1
2018-Jul-09 21:58N 34°42' E 135°19'0 0.0
2018-Jul-09 21:28N 34°42' E 135°19'0 0.0
2018-Jul-09 20:58N 34°42' E 135°19'0 0.0
2018-Jul-09 20:28N 34°42' E 135°19'0 0.0
2018-Jul-09 19:58N 34°42' E 135°19'0 0.0
2018-Jul-09 19:28N 34°42' E 135°19'0 0.0
2018-Jul-09 18:58N 34°42' E 135°19'0 0.0
2018-Jul-09 18:28N 34°42' E 135°19'0 0.1
2018-Jul-09 17:46N 34°42' E 135°19'0 0.0
2018-Jul-09 17:16N 34°42' E 135°19'0 0.0
2018-Jul-09 16:58N 34°42' E 135°19'0 0.0
2018-Jul-09 16:28N 34°42' E 135°19'0 0.1
2018-Jul-09 15:58N 34°42' E 135°19'0 0.1
2018-Jul-09 15:28N 34°42' E 135°19'0 0.1
2018-Jul-09 14:58N 34°42' E 135°19'0 1.0
2018-Jul-09 14:30N 34°41' E 135°19'510.7
2018-Jul-09 14:00N 34°36' E 135°16'611.2
2018-Jul-09 13:30N 34°35' E 135°09'611.7
2018-Jul-09 13:00N 34°36' E 135°02'2210.7
2018-Jul-09 10:55N 34°29' E 134°37'11 0.6
2018-Jul-08 17:25N 34°21' E 134°27'2210.7
2018-Jul-08 15:20N 34°06' E 134°47'1010.8
2018-Jul-08 14:23N 33°58' E 134°55'  

Dump ship's entire track history